createdAt,value
2022-12-01T00:01:17.167Z,52.22
2022-12-01T00:03:44.194Z,73.18
2022-12-01T00:06:15.959Z,53.70
2022-12-01T00:09:02.827Z,59.88
2022-12-01T00:11:29.870Z,59.15
2022-12-01T00:13:56.675Z,51.30
2022-12-01T00:16:23.508Z,55.80
2022-12-01T00:18:51.762Z,58.63
2022-12-01T00:21:21.218Z,52.03
2022-12-01T00:23:50.144Z,47.55
2022-12-01T00:26:18.210Z,54.38
2022-12-01T00:28:51.056Z,53.30
2022-12-01T00:31:18.081Z,57.00
2022-12-01T00:33:45.251Z,54.97
2022-12-01T00:36:12.363Z,50.10
2022-12-01T00:38:39.895Z,54.60
2022-12-01T00:41:07.221Z,50.58
2022-12-01T00:43:34.333Z,52.65
2022-12-01T00:46:01.271Z,50.63
2022-12-01T00:48:28.413Z,50.33
2022-12-01T00:50:56.076Z,48.55
2022-12-01T00:53:24.561Z,50.72
2022-12-01T00:55:54.102Z,50.05
2022-12-01T00:58:22.254Z,49.30
2022-12-01T01:00:49.884Z,46.60
2022-12-01T01:03:16.828Z,47.53
2022-12-01T01:05:43.967Z,48.97
2022-12-01T01:08:13.671Z,52.03
2022-12-01T01:13:08.593Z,55.15
2022-12-01T01:15:35.463Z,53.03
2022-12-01T01:18:02.711Z,50.63
2022-12-01T01:20:29.610Z,49.47
2022-12-01T01:22:56.730Z,54.25
2022-12-01T01:25:24.026Z,57.88
2022-12-01T01:27:51.097Z,51.35
2022-12-01T01:30:18.753Z,55.03
2022-12-01T01:32:45.679Z,56.10
2022-12-01T01:35:12.634Z,47.97
2022-12-01T01:37:39.573Z,53.50
2022-12-01T01:40:06.942Z,53.80
2022-12-01T01:42:33.778Z,49.33
2022-12-01T01:45:00.662Z,56.13
2022-12-01T01:47:37.971Z,50.80
2022-12-01T01:50:11.169Z,57.40
2022-12-01T01:52:45.087Z,53.40
2022-12-01T01:55:12.871Z,60.28
2022-12-01T01:57:40.298Z,56.33
2022-12-01T02:00:10.433Z,59.85
2022-12-01T02:02:40.535Z,62.53
2022-12-01T02:05:11.158Z,47.25
2022-12-01T02:07:40.043Z,60.60
2022-12-01T02:10:12.760Z,59.95
2022-12-01T02:12:57.727Z,71.13
2022-12-01T02:15:37.895Z,75.65
2022-12-01T02:18:27.071Z,53.78
2022-12-01T02:21:19.576Z,54.58
2022-12-01T02:24:04.990Z,74.80
2022-12-01T02:26:57.018Z,85.32
2022-12-01T02:29:33.048Z,79.72
2022-12-01T02:32:27.536Z,72.40
2022-12-01T02:35:22.193Z,71.93
2022-12-01T02:38:10.866Z,58.70
2022-12-01T02:40:43.378Z,73.15
2022-12-01T02:43:22.325Z,86.55
2022-12-01T02:46:16.997Z,78.63
2022-12-01T02:48:48.477Z,69.63
2022-12-01T02:51:30.301Z,73.57
2022-12-01T02:54:02.765Z,77.32
2022-12-01T02:56:29.961Z,84.07
2022-12-01T02:58:56.886Z,80.40
2022-12-01T03:01:57.282Z,74.13
2022-12-01T03:04:50.051Z,83.00
2022-12-01T03:07:54.558Z,87.28
2022-12-01T03:10:54.209Z,74.72
2022-12-01T03:13:27.202Z,73.65
2022-12-01T03:16:02.676Z,85.07
2022-12-01T03:18:39.989Z,81.05
2022-12-01T03:21:17.630Z,75.25
2022-12-01T03:23:48.790Z,76.55
2022-12-01T03:26:19.018Z,83.70
2022-12-01T03:28:56.563Z,78.07
2022-12-01T03:31:29.900Z,76.07
2022-12-01T03:34:01.614Z,77.30
2022-12-01T03:36:41.258Z,68.20
2022-12-01T03:39:14.953Z,74.57
2022-12-01T03:41:47.529Z,72.22
2022-12-01T03:44:31.293Z,76.13
2022-12-01T03:47:08.670Z,69.65
2022-12-01T03:49:36.866Z,71.22
2022-12-01T03:52:25.626Z,79.60
2022-12-01T03:55:12.842Z,62.40
2022-12-01T03:58:04.487Z,68.53
2022-12-01T04:00:32.121Z,69.10
2022-12-01T04:03:03.292Z,70.75
2022-12-01T04:05:31.269Z,69.03
2022-12-01T04:07:59.081Z,74.55
2022-12-01T04:10:26.078Z,69.40
2022-12-01T04:12:58.955Z,67.00
2022-12-01T04:15:27.199Z,69.53
2022-12-01T04:17:56.676Z,67.47
2022-12-01T04:22:50.283Z,66.70
2022-12-01T04:25:17.238Z,65.20
2022-12-01T04:27:44.094Z,63.00
2022-12-01T04:30:11.504Z,67.22
2022-12-01T04:32:43.107Z,64.85
2022-12-01T04:35:11.412Z,58.88
2022-12-01T04:37:39.020Z,66.85
2022-12-01T04:40:06.812Z,60.10
2022-12-01T04:42:33.696Z,71.40
2022-12-01T04:45:00.554Z,63.08
2022-12-01T04:47:27.435Z,58.03
2022-12-01T04:49:54.615Z,61.40
2022-12-01T04:52:21.424Z,59.63
2022-12-01T04:54:48.268Z,60.05
2022-12-01T04:57:15.113Z,63.40
2022-12-01T04:59:41.950Z,60.67
2022-12-01T05:02:08.822Z,60.72
2022-12-01T05:04:38.700Z,62.00
2022-12-01T05:07:05.666Z,62.55
2022-12-01T05:09:32.551Z,61.80
2022-12-01T05:11:59.337Z,62.17
2022-12-01T05:14:26.298Z,64.78
2022-12-01T05:16:54.416Z,60.90
2022-12-01T05:19:39.766Z,59.42
2022-12-01T05:22:06.596Z,69.95
2022-12-01T05:24:33.493Z,65.70
2022-12-01T05:27:00.293Z,59.67
2022-12-01T05:29:27.103Z,59.17
2022-12-01T05:31:54.030Z,61.78
2022-12-01T05:34:20.887Z,55.40
2022-12-01T05:36:47.736Z,62.25
2022-12-01T05:39:14.632Z,61.60
2022-12-01T05:41:41.466Z,60.75
2022-12-01T05:44:08.302Z,61.92
2022-12-01T05:46:35.161Z,64.45
2022-12-01T05:49:02.015Z,58.92
2022-12-01T05:51:28.859Z,57.08
2022-12-01T05:53:55.768Z,65.07
2022-12-01T05:56:22.681Z,64.20
2022-12-01T05:58:49.507Z,62.38
2022-12-01T06:01:16.391Z,60.33
2022-12-01T06:03:43.440Z,58.20
2022-12-01T06:06:10.331Z,60.45
2022-12-01T06:08:37.172Z,54.33
2022-12-01T06:11:04.123Z,50.75
2022-12-01T06:13:34.003Z,59.42
2022-12-01T06:16:03.352Z,59.15
2022-12-01T06:18:37.932Z,64.18
2022-12-01T06:21:06.547Z,57.00
2022-12-01T06:23:34.114Z,53.60
2022-12-01T06:26:01.185Z,61.08
2022-12-01T06:28:28.076Z,60.00
2022-12-01T06:30:59.486Z,65.93
2022-12-01T06:33:30.150Z,57.40
2022-12-01T06:36:01.803Z,64.28
2022-12-01T06:38:36.684Z,54.90
2022-12-01T06:41:05.432Z,50.22
2022-12-01T06:43:32.616Z,60.45
2022-12-01T06:46:02.110Z,66.97
2022-12-01T06:48:33.232Z,64.40
2022-12-01T06:51:01.305Z,67.07
2022-12-01T06:53:31.294Z,61.80
2022-12-01T06:56:05.285Z,62.30
2022-12-01T06:58:35.149Z,69.43
2022-12-01T07:01:08.577Z,62.80
2022-12-01T07:03:35.664Z,61.28
2022-12-01T07:06:03.502Z,61.22
2022-12-01T07:08:31.701Z,73.53
2022-12-01T07:11:03.573Z,64.55
2022-12-01T07:13:33.736Z,54.47
2022-12-01T07:16:03.121Z,68.63
2022-12-01T07:18:30.678Z,62.40
2022-12-01T07:21:02.063Z,65.65
2022-12-01T07:23:29.655Z,78.50
2022-12-01T07:26:05.054Z,68.00
2022-12-01T07:28:32.421Z,69.93
2022-12-01T07:31:07.942Z,72.80
2022-12-01T07:33:35.237Z,75.93
2022-12-01T07:36:02.494Z,72.32
2022-12-01T07:38:33.651Z,69.15
2022-12-01T07:41:10.338Z,76.07
2022-12-01T07:43:37.474Z,73.88
2022-12-01T07:46:10.061Z,77.75
2022-12-01T07:48:38.824Z,70.03
2022-12-01T07:51:10.525Z,74.50
2022-12-01T07:53:38.174Z,70.25
2022-12-01T07:56:08.811Z,69.05
2022-12-01T07:58:36.559Z,69.45
2022-12-01T08:01:12.501Z,75.63
2022-12-01T08:03:40.268Z,73.68
2022-12-01T08:06:08.412Z,77.05
2022-12-01T08:08:37.621Z,69.18
2022-12-01T08:11:08.069Z,70.05
2022-12-01T08:13:35.174Z,73.35
2022-12-01T08:16:07.167Z,72.22
2022-12-01T08:18:35.652Z,67.00
2022-12-01T08:21:03.269Z,69.63
2022-12-01T08:23:30.579Z,64.82
2022-12-01T08:26:05.011Z,68.13
2022-12-01T08:28:32.620Z,71.40
2022-12-01T08:30:59.589Z,58.83
2022-12-01T08:33:28.654Z,69.75
2022-12-01T08:35:55.468Z,59.53
2022-12-01T08:38:22.658Z,66.78
2022-12-01T08:40:49.449Z,76.03
2022-12-01T08:43:34.663Z,70.90
2022-12-01T08:46:03.085Z,61.15
2022-12-01T08:48:30.329Z,62.45
2022-12-01T08:51:06.631Z,56.10
2022-12-01T08:53:34.856Z,69.38
2022-12-01T08:56:05.050Z,70.75
2022-12-01T08:58:31.967Z,60.22
2022-12-01T09:01:09.891Z,60.42
2022-12-01T09:03:38.301Z,60.83
2022-12-01T09:06:06.305Z,63.30
2022-12-01T09:08:35.028Z,59.97
2022-12-01T09:11:08.112Z,59.15
2022-12-01T09:13:36.694Z,62.75
2022-12-01T09:16:12.861Z,57.58
2022-12-01T09:18:39.920Z,53.22
2022-12-01T09:21:21.832Z,58.17
2022-12-01T09:23:49.386Z,59.42
2022-12-01T09:26:19.578Z,66.38
2022-12-01T09:28:48.028Z,57.45
2022-12-01T09:31:16.243Z,58.45
2022-12-01T09:33:43.291Z,60.03
2022-12-01T09:36:10.823Z,63.67
2022-12-01T09:38:39.226Z,56.38
2022-12-01T09:41:19.217Z,60.05
2022-12-01T09:43:54.106Z,61.20
2022-12-01T09:46:25.067Z,54.17
2022-12-01T09:48:54.026Z,60.35
2022-12-01T09:51:22.751Z,58.65
2022-12-01T09:53:54.282Z,53.22
2022-12-01T09:56:26.794Z,60.00
2022-12-01T09:58:56.834Z,54.50
2022-12-01T10:01:59.429Z,51.33
2022-12-01T10:04:33.758Z,50.00
2022-12-01T10:07:05.366Z,51.10
2022-12-01T10:09:44.441Z,52.13
2022-12-01T10:12:19.847Z,55.20
2022-12-01T10:14:48.875Z,53.95
2022-12-01T10:17:27.812Z,55.20
2022-12-01T10:20:21.216Z,56.85
2022-12-01T10:23:00.494Z,54.45
2022-12-01T10:25:31.179Z,55.10
2022-12-01T10:28:10.387Z,54.30
2022-12-01T10:30:48.481Z,50.53
2022-12-01T10:33:24.028Z,47.03
2022-12-01T10:35:51.509Z,60.70
2022-12-01T10:38:32.447Z,54.30
2022-12-01T10:41:01.473Z,52.75
2022-12-01T10:44:01.135Z,48.00
2022-12-01T10:46:49.115Z,52.38
2022-12-01T10:49:18.145Z,52.28
2022-12-01T10:51:50.117Z,54.10
2022-12-01T10:54:17.631Z,47.53
2022-12-01T10:56:47.828Z,48.55
2022-12-01T10:59:26.711Z,47.22
2022-12-01T11:01:54.850Z,56.78
2022-12-01T11:04:45.504Z,49.88
2022-12-01T11:07:35.160Z,47.80
2022-12-01T11:10:23.000Z,48.30
2022-12-01T11:12:59.526Z,54.30
2022-12-01T11:15:38.143Z,54.28
2022-12-01T11:18:19.656Z,51.85
2022-12-01T11:20:46.666Z,60.45
2022-12-01T11:23:24.712Z,56.53
2022-12-01T11:26:16.125Z,52.42
2022-12-01T11:29:04.708Z,50.33
2022-12-01T11:31:50.106Z,52.90
2022-12-01T11:34:27.207Z,50.38
2022-12-01T11:36:58.475Z,43.85
2022-12-01T11:39:34.290Z,45.85
2022-12-01T11:42:28.582Z,46.33
2022-12-01T11:45:08.943Z,46.03
2022-12-01T11:50:22.653Z,44.30
2022-12-01T11:52:49.488Z,46.45
2022-12-01T11:55:17.038Z,49.10
2022-12-01T11:57:46.032Z,49.45
2022-12-01T12:00:26.861Z,46.70
2022-12-01T12:03:07.971Z,47.78
2022-12-01T12:05:49.947Z,47.55
2022-12-01T12:08:28.888Z,40.08
2022-12-01T12:11:21.894Z,41.45
2022-12-01T12:14:12.251Z,39.28
2022-12-01T12:16:57.811Z,38.40
2022-12-01T12:20:07.200Z,40.45
2022-12-01T12:23:02.825Z,40.03
2022-12-01T12:26:03.603Z,38.63
2022-12-01T12:28:33.351Z,39.00
2022-12-01T12:31:03.270Z,40.72
2022-12-01T12:33:40.855Z,36.58
2022-12-01T12:36:50.515Z,38.95
2022-12-01T12:39:26.718Z,39.10
2022-12-01T12:41:57.956Z,38.50
2022-12-01T12:44:43.794Z,36.75
2022-12-01T12:47:26.196Z,36.40
2022-12-01T12:50:12.549Z,39.33
2022-12-01T12:52:43.540Z,35.40
2022-12-01T12:55:13.458Z,38.92
2022-12-01T12:57:56.951Z,39.70
2022-12-01T13:00:28.951Z,36.72
2022-12-01T13:02:55.919Z,32.20
2022-12-01T13:05:38.480Z,37.95
2022-12-01T13:08:25.790Z,36.50
2022-12-01T13:11:08.065Z,37.72
2022-12-01T13:14:01.225Z,34.47
2022-12-01T13:16:33.928Z,33.55
2022-12-01T13:19:19.514Z,34.08
2022-12-01T13:21:50.105Z,39.05
2022-12-01T13:24:23.529Z,37.72
2022-12-01T13:27:04.875Z,35.47
2022-12-01T13:29:40.867Z,34.75
2022-12-01T13:32:24.747Z,36.95
2022-12-01T13:34:51.672Z,36.75
2022-12-01T13:37:28.241Z,37.30
2022-12-01T13:39:56.503Z,39.92
2022-12-01T13:42:25.678Z,36.20
2022-12-01T13:44:55.415Z,35.47
2022-12-01T13:47:33.169Z,37.17
2022-12-01T13:50:48.023Z,37.83
2022-12-01T13:53:17.698Z,36.38
2022-12-01T13:56:02.914Z,41.92
2022-12-01T13:58:33.001Z,44.00
2022-12-01T14:01:22.897Z,39.45
2022-12-01T14:04:12.140Z,38.20
2022-12-01T14:06:49.413Z,44.53
2022-12-01T14:09:32.075Z,42.08
2022-12-01T14:12:01.159Z,40.63
2022-12-01T14:14:36.278Z,37.80
2022-12-01T14:17:03.996Z,42.90
2022-12-01T14:20:05.077Z,42.17
2022-12-01T14:22:45.104Z,37.33
2022-12-01T14:25:27.018Z,50.40
2022-12-01T14:28:00.017Z,41.08
2022-12-01T14:30:42.395Z,48.28
2022-12-01T14:33:41.892Z,46.45
2022-12-01T14:36:20.947Z,47.17
2022-12-01T14:38:52.812Z,45.05
2022-12-01T14:41:37.811Z,43.08
2022-12-01T14:44:19.303Z,47.53
2022-12-01T14:46:49.808Z,42.80
2022-12-01T14:49:25.622Z,49.55
2022-12-01T14:52:00.763Z,45.40
2022-12-01T14:54:53.229Z,44.88
2022-12-01T14:57:25.762Z,49.97
2022-12-01T15:00:14.889Z,50.50
2022-12-01T15:03:00.385Z,43.25
2022-12-01T15:05:29.927Z,52.08
2022-12-01T15:10:54.443Z,47.17
2022-12-01T15:13:28.062Z,43.45
2022-12-01T15:15:59.447Z,45.67
2022-12-01T15:18:32.252Z,54.25
2022-12-01T15:21:05.166Z,45.70
2022-12-01T15:23:32.008Z,55.78
2022-12-01T15:25:59.077Z,52.92
2022-12-01T15:28:35.206Z,56.03
2022-12-01T15:31:11.254Z,62.85
2022-12-01T15:33:48.839Z,60.85
2022-12-01T15:36:15.798Z,52.85
2022-12-01T15:38:46.167Z,56.40
2022-12-01T15:41:29.100Z,58.50
2022-12-01T15:43:58.995Z,66.63
2022-12-01T15:46:34.278Z,55.38
2022-12-01T15:49:15.096Z,52.92
2022-12-01T15:51:42.005Z,54.08
2022-12-01T15:54:24.243Z,63.47
2022-12-01T15:56:56.022Z,49.08
2022-12-01T15:59:30.965Z,62.42
2022-12-01T16:01:58.501Z,61.20
2022-12-01T16:04:28.539Z,56.10
2022-12-01T16:07:11.073Z,55.45
2022-12-01T16:09:44.509Z,67.43
2022-12-01T16:12:23.218Z,61.50
2022-12-01T16:15:00.564Z,64.03
2022-12-01T16:17:40.209Z,54.85
2022-12-01T16:20:27.117Z,68.28
2022-12-01T16:23:00.867Z,62.47
2022-12-01T16:25:37.827Z,65.80
2022-12-01T16:28:07.154Z,61.20
2022-12-01T16:30:39.550Z,70.43
2022-12-01T16:33:22.245Z,67.45
2022-12-01T16:35:49.683Z,60.63
2022-12-01T16:38:28.851Z,62.30
2022-12-01T16:40:58.352Z,59.10
2022-12-01T16:46:01.518Z,71.22
2022-12-01T16:48:28.787Z,58.15
2022-12-01T16:50:56.632Z,68.97
2022-12-01T16:53:23.491Z,71.63
2022-12-01T16:55:54.040Z,70.53
2022-12-01T16:58:21.310Z,67.25
2022-12-01T17:00:52.629Z,71.38
2022-12-01T17:03:27.235Z,69.65
2022-12-01T17:05:54.998Z,78.15
2022-12-01T17:08:22.513Z,65.57
2022-12-01T17:10:51.232Z,68.35
2022-12-01T17:13:19.754Z,67.73
2022-12-01T17:15:49.904Z,62.88
2022-12-01T17:18:18.617Z,59.38
2022-12-01T17:20:45.687Z,62.27
2022-12-01T17:23:12.671Z,71.53
2022-12-01T17:25:43.258Z,69.82
2022-12-01T17:28:10.116Z,61.13
2022-12-01T17:30:37.250Z,76.32
2022-12-01T17:33:04.620Z,70.53
2022-12-01T17:35:31.740Z,65.57
2022-12-01T17:37:58.657Z,63.28
2022-12-01T17:40:25.551Z,66.88
2022-12-01T17:42:52.476Z,61.53
2022-12-01T17:45:19.864Z,61.90
2022-12-01T17:47:47.056Z,65.60
2022-12-01T17:50:14.433Z,65.57
2022-12-01T17:52:41.260Z,67.40
2022-12-01T17:55:08.993Z,62.28
2022-12-01T17:57:36.139Z,68.25
2022-12-01T18:00:04.901Z,71.63
2022-12-01T18:02:31.805Z,62.07
2022-12-01T18:04:58.831Z,67.57
2022-12-01T18:07:25.750Z,64.38
2022-12-01T18:09:52.642Z,64.78
2022-12-01T18:12:19.494Z,64.38
2022-12-01T18:14:46.542Z,67.13
2022-12-01T18:17:13.368Z,65.50
2022-12-01T18:19:40.593Z,62.08
2022-12-01T18:22:07.945Z,63.33
2022-12-01T18:24:35.060Z,61.70
2022-12-01T18:27:01.926Z,63.25
2022-12-01T18:29:28.991Z,62.55
2022-12-01T18:32:00.729Z,62.00
2022-12-01T18:34:29.685Z,62.40
2022-12-01T18:36:57.215Z,55.88
2022-12-01T18:39:24.048Z,59.58
2022-12-01T18:41:50.973Z,57.47
2022-12-01T18:44:17.873Z,62.30
2022-12-01T18:46:44.817Z,60.50
2022-12-01T18:49:12.386Z,58.47
2022-12-01T18:51:39.740Z,61.65
2022-12-01T18:54:08.440Z,59.05
2022-12-01T18:56:35.340Z,59.40
2022-12-01T18:59:05.143Z,61.47
2022-12-01T19:01:36.230Z,62.25
2022-12-01T19:04:04.740Z,61.17
2022-12-01T19:06:33.962Z,66.07
2022-12-01T19:09:02.998Z,65.25
2022-12-01T19:11:30.643Z,53.92
2022-12-01T19:13:57.939Z,62.65
2022-12-01T19:16:25.188Z,57.83
2022-12-01T19:18:52.072Z,61.92
2022-12-01T19:21:20.209Z,58.72
2022-12-01T19:23:48.288Z,57.45
2022-12-01T19:26:20.903Z,57.53
2022-12-01T19:28:48.244Z,64.30
2022-12-01T19:31:17.728Z,62.83
2022-12-01T19:33:44.970Z,53.97
2022-12-01T19:36:14.710Z,62.88
2022-12-01T19:38:41.565Z,62.53
2022-12-01T19:41:09.327Z,66.10
2022-12-01T19:43:37.091Z,58.35
2022-12-01T19:46:09.005Z,57.45
2022-12-01T19:48:36.482Z,57.65
2022-12-01T19:51:03.812Z,64.43
2022-12-01T19:53:33.798Z,61.75
2022-12-01T19:56:03.202Z,58.40
2022-12-01T19:58:33.301Z,63.83
2022-12-01T20:01:11.494Z,62.00
2022-12-01T20:03:39.219Z,55.47
2022-12-01T20:06:09.622Z,56.85
2022-12-01T20:08:36.810Z,58.65
2022-12-01T20:11:04.848Z,63.08
2022-12-01T20:13:36.704Z,58.00
2022-12-01T20:16:09.941Z,58.38
2022-12-01T20:18:37.704Z,57.50
2022-12-01T20:21:09.546Z,61.28
2022-12-01T20:23:37.177Z,63.13
2022-12-01T20:26:06.814Z,63.13
2022-12-01T20:28:34.848Z,54.95
2022-12-01T20:31:02.342Z,59.70
2022-12-01T20:33:29.474Z,63.33
2022-12-01T20:35:56.463Z,58.95
2022-12-01T20:38:27.426Z,57.28
2022-12-01T20:40:54.793Z,54.83
2022-12-01T20:43:21.846Z,55.72
2022-12-01T20:45:48.819Z,58.95
2022-12-01T20:48:17.793Z,55.63
2022-12-01T20:50:44.767Z,57.72
2022-12-01T20:53:11.756Z,57.60
2022-12-01T20:55:39.010Z,58.90
2022-12-01T20:58:08.684Z,56.55
2022-12-01T21:00:40.659Z,53.53
2022-12-01T21:03:08.154Z,56.13
2022-12-01T21:05:38.083Z,55.03
2022-12-01T21:08:07.585Z,58.55
2022-12-01T21:13:42.333Z,61.03
2022-12-01T21:16:18.068Z,58.88
2022-12-01T21:18:47.975Z,58.13
2022-12-01T21:21:28.637Z,54.55
2022-12-01T21:24:20.136Z,56.00
2022-12-01T21:26:56.825Z,54.85
2022-12-01T21:29:38.564Z,55.38
2022-12-01T21:32:17.993Z,57.63
2022-12-01T21:34:46.991Z,55.47
2022-12-01T21:37:22.748Z,50.90
2022-12-01T21:39:56.890Z,53.72
2022-12-01T21:42:27.570Z,49.85
2022-12-01T21:44:56.487Z,49.22
2022-12-01T21:47:29.606Z,51.10
2022-12-01T21:50:06.909Z,46.17
2022-12-01T21:52:40.698Z,47.28
2022-12-01T21:55:16.857Z,47.28
2022-12-01T21:57:48.998Z,46.72
2022-12-01T22:00:29.842Z,48.08
2022-12-01T22:03:09.023Z,46.60
2022-12-01T22:05:40.443Z,43.00
2022-12-01T22:08:13.183Z,46.47
2022-12-01T22:11:03.531Z,44.42
2022-12-01T22:13:33.227Z,43.17
2022-12-01T22:16:00.126Z,46.53
2022-12-01T22:18:37.633Z,42.67
2022-12-01T22:21:22.646Z,47.22
2022-12-01T22:23:57.116Z,46.50
2022-12-01T22:26:25.170Z,40.30
2022-12-01T22:28:58.065Z,41.33
2022-12-01T22:31:25.212Z,44.03
2022-12-01T22:34:03.030Z,47.22
2022-12-01T22:36:31.842Z,44.85
2022-12-01T22:38:59.077Z,45.65
2022-12-01T22:41:28.741Z,41.28
2022-12-01T22:43:56.849Z,44.25
2022-12-01T22:46:32.439Z,43.33
2022-12-01T22:49:10.868Z,43.90
2022-12-01T22:51:50.780Z,43.00
2022-12-01T22:54:17.567Z,45.25
2022-12-01T22:56:50.504Z,44.50
2022-12-01T22:59:37.976Z,40.33
2022-12-01T23:02:21.101Z,42.80
2022-12-01T23:04:51.908Z,44.40
2022-12-01T23:07:29.994Z,42.28
2022-12-01T23:10:22.921Z,49.13
2022-12-01T23:12:52.261Z,43.35
2022-12-01T23:15:37.252Z,47.33
2022-12-01T23:18:13.298Z,43.25
2022-12-01T23:20:41.551Z,44.03
2022-12-01T23:23:15.021Z,42.65
2022-12-01T23:25:43.234Z,44.75
2022-12-01T23:28:12.427Z,42.42
2022-12-01T23:30:41.098Z,45.83
2022-12-01T23:33:19.998Z,43.70
2022-12-01T23:36:05.889Z,45.80
2022-12-01T23:38:37.373Z,46.15
2022-12-01T23:41:14.120Z,48.13
2022-12-01T23:43:46.208Z,47.47
2022-12-01T23:46:24.824Z,53.17
2022-12-01T23:48:56.387Z,52.78
2022-12-01T23:51:30.854Z,52.42
2022-12-01T23:54:00.668Z,48.78
2022-12-01T23:56:30.530Z,47.63
2022-12-01T23:59:00.467Z,48.55
